Time;durP1;ratioP1;P1;durP2;ratioP2;P2;SDS_P1;SDS_P2;PMS_P1;PMS_P2;Temp;Humidity;BMP_temperature;BMP_pressure;BME280_temperature;BME280_humidity;BME280_pressure;Samples;Min_cycle;Max_cycle;Signal;HPM_P1;HPM_P2
2023/04/25 00:01:12;;;;;;;13.75;3.60;;;8.10;99.90;;;;;;5024040;28;20048;-89
2023/04/25 00:03:38;;;;;;;14.48;3.92;;;8.10;99.90;;;;;;5038985;28;20045;-88
2023/04/25 00:06:04;;;;;;;14.82;3.50;;;8.10;99.90;;;;;;5039420;28;20118;-89
2023/04/25 00:08:30;;;;;;;22.77;3.95;;;8.10;99.90;;;;;;5021919;28;20049;-89
2023/04/25 00:10:57;;;;;;;19.88;3.47;;;8.10;99.90;;;;;;5022376;28;20033;-89
2023/04/25 00:13:23;;;;;;;10.90;2.75;;;8.10;99.90;;;;;;5022439;28;20042;-89
2023/04/25 00:15:49;;;;;;;17.40;3.80;;;8.10;99.90;;;;;;5040715;28;20377;-89
2023/04/25 00:18:15;;;;;;;18.27;4.15;;;8.00;99.90;;;;;;5042716;28;20040;-89
2023/04/25 00:20:44;;;;;;;14.85;3.42;;;8.00;99.90;;;;;;5036989;28;20133;-88
2023/04/25 00:23:10;;;;;;;16.75;3.42;;;8.00;99.90;;;;;;5038192;28;20093;-89
2023/04/25 00:25:35;;;;;;;18.40;3.97;;;8.00;99.90;;;;;;5040058;28;20060;-90
2023/04/25 00:28:01;;;;;;;14.43;3.13;;;8.00;99.90;;;;;;5018408;28;20056;-89
2023/04/25 00:30:27;;;;;;;13.05;3.72;;;8.10;99.90;;;;;;5021714;28;20156;-89
2023/04/25 00:32:53;;;;;;;14.75;3.90;;;8.00;99.90;;;;;;5023691;28;20115;-89
2023/04/25 00:35:18;;;;;;;17.92;4.25;;;8.00;99.90;;;;;;5020554;28;20083;-88
2023/04/25 00:37:44;;;;;;;16.35;3.05;;;8.00;99.90;;;;;;5005294;28;20037;-89
2023/04/25 00:40:10;;;;;;;14.43;3.78;;;8.00;99.90;;;;;;5039705;28;20049;-89
2023/04/25 00:42:37;;;;;;;23.75;3.67;;;8.00;99.90;;;;;;5018136;28;20115;-89
2023/04/25 00:45:05;;;;;;;9.95;3.00;;;7.90;99.90;;;;;;5041882;28;20078;-89
2023/04/25 00:47:32;;;;;;;17.13;3.72;;;8.00;99.90;;;;;;5038871;28;20132;-89
2023/04/25 00:49:58;;;;;;;20.63;3.30;;;7.90;99.90;;;;;;5021600;28;20047;-88
2023/04/25 00:52:24;;;;;;;21.20;3.42;;;7.90;99.90;;;;;;5019801;28;20045;-89
2023/04/25 00:54:49;;;;;;;16.45;3.00;;;7.90;99.90;;;;;;5018152;28;20061;-90
2023/04/25 00:57:15;;;;;;;18.35;3.42;;;7.90;99.90;;;;;;5039470;28;20040;-89
2023/04/25 00:59:45;;;;;;;17.55;3.53;;;7.90;99.90;;;;;;5008114;28;20072;-89
2023/04/25 01:02:11;;;;;;;11.80;3.13;;;7.90;99.90;;;;;;5021866;28;20056;-89
2023/04/25 01:04:36;;;;;;;14.13;3.17;;;7.90;99.90;;;;;;5035127;28;20037;-89
2023/04/25 01:07:02;;;;;;;12.77;2.95;;;7.90;99.90;;;;;;5021594;28;20041;-88
2023/04/25 01:09:31;;;;;;;12.82;3.28;;;7.90;99.90;;;;;;5023602;28;20041;-90
2023/04/25 01:11:57;;;;;;;13.77;3.00;;;7.80;99.90;;;;;;5018352;28;20563;-89
2023/04/25 01:14:23;;;;;;;15.05;2.90;;;7.80;99.90;;;;;;5019170;28;20047;-88
2023/04/25 01:16:49;;;;;;;13.45;3.50;;;7.80;99.90;;;;;;5022734;28;20042;-89
2023/04/25 01:19:17;;;;;;;17.52;3.50;;;7.80;99.90;;;;;;5004487;28;20133;-89
2023/04/25 01:21:45;;;;;;;14.45;2.80;;;7.80;99.90;;;;;;5020493;28;20036;-89
2023/04/25 01:24:11;;;;;;;14.85;3.00;;;7.80;99.90;;;;;;5017992;28;20129;-89
2023/04/25 01:26:37;;;;;;;15.20;3.30;;;7.80;99.90;;;;;;5023876;28;20052;-89
2023/04/25 01:29:07;;;;;;;19.10;3.50;;;7.80;99.90;;;;;;5021206;28;20041;-90
2023/04/25 01:31:33;;;;;;;12.00;3.67;;;7.80;99.90;;;;;;5039862;28;20083;-86
2023/04/25 01:34:00;;;;;;;15.80;3.25;;;7.70;99.90;;;;;;5024310;28;20122;-86
2023/04/25 01:36:26;;;;;;;15.00;3.00;;;7.70;99.90;;;;;;5037690;28;20041;-86
2023/04/25 01:38:52;;;;;;;14.73;3.03;;;7.70;99.90;;;;;;5023640;28;20072;-87
2023/04/25 01:41:18;;;;;;;17.50;2.63;;;7.70;99.90;;;;;;5020726;28;20728;-86
2023/04/25 01:43:45;;;;;;;14.18;3.03;;;7.70;99.90;;;;;;5038928;28;20077;-86
2023/04/25 01:46:11;;;;;;;16.10;2.50;;;7.70;99.90;;;;;;5038120;28;20037;-86
2023/04/25 01:48:37;;;;;;;9.77;2.33;;;7.70;99.90;;;;;;5033211;28;20041;-87
2023/04/25 01:51:03;;;;;;;14.60;2.85;;;7.70;99.90;;;;;;5016354;28;20045;-86
2023/04/25 01:53:29;;;;;;;11.13;2.47;;;7.60;99.90;;;;;;5042093;28;20036;-86
2023/04/25 01:55:54;;;;;;;16.00;2.72;;;7.60;99.90;;;;;;5008120;28;20053;-88
2023/04/25 01:58:20;;;;;;;12.43;2.70;;;7.60;99.90;;;;;;5038703;28;20102;-88
2023/04/25 02:00:46;;;;;;;10.23;2.40;;;7.60;99.90;;;;;;5041078;28;20057;-89
2023/04/25 02:03:12;;;;;;;13.40;2.38;;;7.60;99.90;;;;;;5038669;28;20037;-88
2023/04/25 02:05:38;;;;;;;11.48;2.08;;;7.60;99.90;;;;;;5024752;28;20037;-88
2023/04/25 02:08:06;;;;;;;15.20;2.22;;;7.60;99.90;;;;;;5018649;28;20041;-88
2023/04/25 02:10:33;;;;;;;12.48;2.28;;;7.60;99.90;;;;;;5017061;28;20036;-87
2023/04/25 02:12:58;;;;;;;9.35;1.92;;;7.60;99.90;;;;;;5022670;28;20080;-88
2023/04/25 02:15:24;;;;;;;11.63;1.85;;;7.60;99.90;;;;;;5021610;28;20578;-88
2023/04/25 02:17:52;;;;;;;14.68;2.20;;;7.50;99.90;;;;;;5004334;28;20045;-88
2023/04/25 02:20:19;;;;;;;11.00;2.03;;;7.50;99.90;;;;;;5015641;28;20098;-88
2023/04/25 02:22:45;;;;;;;10.27;2.47;;;7.50;99.90;;;;;;5017330;28;20124;-88
2023/04/25 02:25:12;;;;;;;14.55;2.28;;;7.50;99.90;;;;;;5024642;28;20072;-88
2023/04/25 02:27:37;;;;;;;10.93;2.10;;;7.50;99.90;;;;;;5037527;28;20045;-88
2023/04/25 02:30:06;;;;;;;15.15;2.05;;;7.40;99.90;;;;;;5023585;28;20124;-87
2023/04/25 02:32:34;;;;;;;12.48;1.95;;;7.40;99.90;;;;;;5024320;28;20045;-88
2023/04/25 02:35:03;;;;;;;9.43;2.25;;;7.40;99.90;;;;;;5017194;28;20136;-88
2023/04/25 02:37:30;;;;;;;11.70;2.38;;;7.40;99.90;;;;;;5035339;28;20046;-88
2023/04/25 02:39:56;;;;;;;13.25;2.22;;;7.40;99.90;;;;;;5020063;28;20514;-88
2023/04/25 02:42:21;;;;;;;13.60;2.13;;;7.40;99.90;;;;;;5038526;28;20087;-88
2023/04/25 02:44:47;;;;;;;14.13;2.25;;;7.30;99.90;;;;;;5023839;28;20352;-88
2023/04/25 02:47:12;;;;;;;9.55;1.73;;;7.40;99.90;;;;;;5019010;28;20033;-89
2023/04/25 02:49:38;;;;;;;11.10;2.10;;;7.30;99.90;;;;;;5004925;28;20128;-88
2023/04/25 02:52:04;;;;;;;16.25;2.20;;;7.30;99.90;;;;;;5021466;28;20072;-88
2023/04/25 02:54:30;;;;;;;12.32;2.65;;;7.30;99.90;;;;;;5039054;28;20037;-88
2023/04/25 02:56:55;;;;;;;10.48;2.85;;;7.40;99.90;;;;;;5018799;28;20049;-88
2023/04/25 02:59:21;;;;;;;11.27;1.77;;;7.30;99.90;;;;;;5018495;28;20127;-89
2023/04/25 03:01:47;;;;;;;14.05;2.13;;;7.30;99.90;;;;;;5015308;28;20075;-88
2023/04/25 03:04:12;;;;;;;11.25;1.77;;;7.30;99.90;;;;;;5023183;28;20071;-88
2023/04/25 03:06:38;;;;;;;10.70;1.80;;;7.30;99.90;;;;;;5019544;28;20628;-88
2023/04/25 03:09:03;;;;;;;11.52;2.03;;;7.30;99.90;;;;;;5047929;28;20033;-88
2023/04/25 03:11:29;;;;;;;9.98;1.77;;;7.30;99.90;;;;;;5024603;28;20743;-89
2023/04/25 03:13:55;;;;;;;9.65;2.28;;;7.30;99.90;;;;;;5042883;28;20040;-88
2023/04/25 03:16:21;;;;;;;8.63;2.17;;;7.30;99.90;;;;;;5027120;28;20049;-88
2023/04/25 03:18:47;;;;;;;13.57;1.95;;;7.30;99.90;;;;;;5026555;28;20120;-89
2023/04/25 03:21:13;;;;;;;13.20;2.13;;;7.20;99.90;;;;;;5022127;28;20051;-88
2023/04/25 03:23:38;;;;;;;10.30;2.00;;;7.20;99.90;;;;;;5039173;28;20260;-88
2023/04/25 03:26:04;;;;;;;9.40;2.05;;;7.20;99.90;;;;;;5040411;28;20061;-89
2023/04/25 03:28:29;;;;;;;12.13;1.90;;;7.20;99.90;;;;;;5039764;28;20134;-89
2023/04/25 03:30:55;;;;;;;14.98;2.20;;;7.20;99.90;;;;;;5041275;28;20395;-88
2023/04/25 03:33:21;;;;;;;15.63;2.40;;;7.20;99.90;;;;;;5019748;28;20041;-88
2023/04/25 03:35:47;;;;;;;7.07;1.75;;;7.20;99.90;;;;;;5038769;28;20040;-88
2023/04/25 03:38:12;;;;;;;13.45;2.10;;;7.20;99.90;;;;;;5039314;28;20044;-88
2023/04/25 03:40:38;;;;;;;6.80;1.42;;;7.20;99.90;;;;;;5040418;28;20032;-88
2023/04/25 03:43:03;;;;;;;10.73;1.60;;;7.10;99.90;;;;;;5043331;28;20578;-88
2023/04/25 03:45:29;;;;;;;11.48;1.60;;;7.10;99.90;;;;;;5019752;28;20052;-88
2023/04/25 03:47:55;;;;;;;9.23;1.85;;;7.10;99.90;;;;;;5025318;28;20128;-88
2023/04/25 03:50:20;;;;;;;12.20;1.98;;;7.10;99.90;;;;;;5023635;28;20045;-88
2023/04/25 03:52:46;;;;;;;14.40;2.53;;;7.40;99.90;;;;;;5018895;28;20037;-88
2023/04/25 03:55:12;;;;;;;17.55;2.05;;;7.00;99.90;;;;;;5025857;28;20045;-89
2023/04/25 03:57:37;;;;;;;10.52;1.58;;;7.00;99.90;;;;;;5022087;28;20041;-88
2023/04/25 04:00:04;;;;;;;8.65;1.55;;;6.90;99.90;;;;;;5041876;28;20037;-88
2023/04/25 04:02:29;;;;;;;11.75;1.80;;;6.90;99.90;;;;;;5043204;28;20582;-88
2023/04/25 04:04:56;;;;;;;8.43;2.03;;;6.90;99.90;;;;;;5021002;28;20048;-88
2023/04/25 04:07:22;;;;;;;10.63;1.63;;;6.90;99.90;;;;;;5024461;28;20585;-89
2023/04/25 04:09:47;;;;;;;8.30;1.90;;;6.90;99.90;;;;;;5004601;28;20052;-89
2023/04/25 04:12:13;;;;;;;9.68;1.50;;;6.80;99.90;;;;;;5021977;28;20029;-89
2023/04/25 04:14:38;;;;;;;10.55;1.70;;;6.80;99.90;;;;;;5041702;28;20052;-88
2023/04/25 04:17:05;;;;;;;13.10;2.78;;;6.80;99.90;;;;;;5023613;28;20120;-89
2023/04/25 04:19:31;;;;;;;12.57;1.65;;;6.80;99.90;;;;;;5043442;28;20104;-88
2023/04/25 04:21:57;;;;;;;10.00;1.45;;;6.70;99.90;;;;;;5026601;28;20045;-89
2023/04/25 04:24:22;;;;;;;12.05;1.48;;;6.70;99.90;;;;;;5042489;28;20051;-89
2023/04/25 04:26:48;;;;;;;11.35;1.65;;;6.70;99.90;;;;;;5017332;28;20068;-89
2023/04/25 04:29:20;;;;;;;9.18;1.40;;;6.70;99.90;;;;;;5020086;28;20503;-88
2023/04/25 04:31:50;;;;;;;10.25;2.03;;;6.70;99.90;;;;;;5016029;28;20192;-90
2023/04/25 04:34:18;;;;;;;10.45;1.77;;;6.70;99.90;;;;;;5020178;28;20084;-88
2023/04/25 04:36:46;;;;;;;10.57;2.20;;;6.70;99.90;;;;;;5016219;28;20152;-88
2023/04/25 04:39:12;;;;;;;11.65;1.45;;;6.70;99.90;;;;;;5015661;28;20049;-89
2023/04/25 04:41:38;;;;;;;7.80;1.50;;;6.70;99.90;;;;;;5013306;28;20045;-89
2023/04/25 04:44:04;;;;;;;6.65;1.50;;;6.60;99.90;;;;;;5019886;28;20099;-88
2023/04/25 04:46:37;;;;;;;17.23;1.77;;;6.40;99.90;;;;;;5017178;28;20119;-88
2023/04/25 04:49:05;;;;;;;8.48;1.65;;;6.60;99.90;;;;;;5017145;28;20218;-88
2023/04/25 04:51:31;;;;;;;10.90;1.70;;;6.50;99.90;;;;;;5021358;28;20124;-88
2023/04/25 04:53:58;;;;;;;10.60;1.88;;;6.50;99.90;;;;;;5017606;28;20199;-88
2023/04/25 04:56:25;;;;;;;9.30;1.98;;;6.50;99.90;;;;;;5017583;28;20053;-88
2023/04/25 04:58:51;;;;;;;9.93;1.75;;;6.50;99.90;;;;;;4996444;28;20164;-88
2023/04/25 05:01:16;;;;;;;9.80;1.67;;;6.40;99.90;;;;;;5016493;28;20037;-88
2023/04/25 05:03:42;;;;;;;10.18;1.50;;;6.40;99.90;;;;;;5013717;28;20133;-89
2023/04/25 05:06:08;;;;;;;13.27;1.90;;;6.40;99.90;;;;;;5020557;28;20133;-88
2023/04/25 05:08:34;;;;;;;12.95;2.25;;;6.40;99.90;;;;;;5019323;28;20049;-88
2023/04/25 05:10:59;;;;;;;12.57;2.42;;;6.40;99.90;;;;;;5022463;28;20033;-87
2023/04/25 05:13:25;;;;;;;8.98;1.63;;;6.40;99.90;;;;;;5001389;28;20049;-89
2023/04/25 05:15:51;;;;;;;13.10;1.83;;;6.50;99.90;;;;;;5021465;28;20551;-89
2023/04/25 05:18:16;;;;;;;10.52;1.70;;;6.50;99.90;;;;;;5019840;28;20123;-88
2023/04/25 05:20:42;;;;;;;9.27;1.75;;;6.50;99.90;;;;;;5012948;28;20500;-88
2023/04/25 05:23:07;;;;;;;16.63;2.08;;;6.50;99.90;;;;;;5019209;28;20045;-87
2023/04/25 05:25:33;;;;;;;13.45;2.17;;;6.50;99.90;;;;;;5018180;28;20052;-88
2023/04/25 05:27:59;;;;;;;11.30;1.63;;;6.60;99.90;;;;;;5016666;28;20086;-88
2023/04/25 05:30:24;;;;;;;9.07;2.13;;;6.60;99.90;;;;;;5020578;28;20061;-88
2023/04/25 05:32:50;;;;;;;10.88;1.90;;;6.60;99.90;;;;;;5018085;28;20045;-88
2023/04/25 05:35:16;;;;;;;9.82;1.73;;;6.60;99.90;;;;;;5016538;28;20049;-87
2023/04/25 05:37:42;;;;;;;12.23;2.05;;;6.60;99.90;;;;;;5020444;28;20403;-88
2023/04/25 05:40:08;;;;;;;11.10;1.83;;;6.60;99.90;;;;;;5012488;28;20041;-89
2023/04/25 05:42:34;;;;;;;10.73;1.77;;;6.50;99.90;;;;;;5016760;28;20046;-88
2023/04/25 05:45:00;;;;;;;10.50;1.48;;;6.50;99.90;;;;;;5020520;28;20052;-88
2023/04/25 05:47:26;;;;;;;8.05;1.40;;;6.50;99.90;;;;;;5015483;28;20428;-86
2023/04/25 05:49:52;;;;;;;7.43;2.15;;;6.40;99.90;;;;;;5010917;28;20065;-89
2023/04/25 05:52:18;;;;;;;8.93;1.60;;;6.40;99.90;;;;;;5013909;28;20048;-91
2023/04/25 05:54:44;;;;;;;14.90;2.10;;;6.40;99.90;;;;;;5015978;28;20689;-89
2023/04/25 05:57:25;;;;;;;8.55;2.17;;;6.30;99.90;;;;;;5012937;28;20084;-88
2023/04/25 05:59:51;;;;;;;8.43;1.92;;;6.40;99.90;;;;;;5013967;28;20049;-90
2023/04/25 06:02:17;;;;;;;9.80;2.05;;;6.40;99.90;;;;;;5000553;28;20118;-87
2023/04/25 06:04:43;;;;;;;9.00;3.05;;;6.40;99.90;;;;;;5017037;28;20136;-90
2023/04/25 06:07:08;;;;;;;9.73;1.83;;;6.40;99.90;;;;;;5009853;28;20069;-89
2023/04/25 06:09:34;;;;;;;12.60;1.70;;;6.40;99.90;;;;;;5020333;28;20034;-89
2023/04/25 06:12:00;;;;;;;12.70;2.22;;;6.40;99.90;;;;;;5021660;28;20045;-89
2023/04/25 06:14:26;;;;;;;11.63;1.50;;;6.50;99.90;;;;;;5013877;28;20116;-89
2023/04/25 06:16:52;;;;;;;8.75;1.40;;;6.50;99.90;;;;;;4996590;28;20368;-89
2023/04/25 06:19:18;;;;;;;15.77;2.08;;;6.50;99.90;;;;;;5015340;28;20060;-90
2023/04/25 06:21:44;;;;;;;5.00;1.30;;;6.60;99.90;;;;;;5021384;28;20153;-89
2023/04/25 06:24:10;;;;;;;10.02;1.55;;;6.70;99.90;;;;;;5019476;28;20497;-91
2023/04/25 06:26:35;;;;;;;8.57;1.42;;;7.30;99.90;;;;;;5016866;28;20046;-90
2023/04/25 06:29:01;;;;;;;15.45;1.83;;;6.70;99.90;;;;;;5002599;28;20121;-89
2023/04/25 06:31:28;;;;;;;8.90;2.05;;;6.70;99.90;;;;;;5011611;28;20077;-89
2023/04/25 06:33:54;;;;;;;9.63;1.70;;;6.70;99.90;;;;;;5002283;28;20041;-89
2023/04/25 06:36:24;;;;;;;9.80;1.83;;;6.70;99.90;;;;;;5001371;28;20041;-90
2023/04/25 06:38:50;;;;;;;12.07;1.90;;;6.80;99.90;;;;;;5018231;28;20431;-89
2023/04/25 06:41:16;;;;;;;10.48;2.15;;;6.80;99.90;;;;;;5002446;28;20140;-90
2023/04/25 06:43:42;;;;;;;9.43;2.03;;;6.90;99.90;;;;;;5013938;28;20037;-88
2023/04/25 06:46:07;;;;;;;16.90;2.13;;;7.00;99.90;;;;;;5018656;28;20053;-90
2023/04/25 06:48:33;;;;;;;13.48;1.67;;;7.10;99.90;;;;;;5018797;28;20033;-89
2023/04/25 06:50:58;;;;;;;8.27;1.15;;;7.20;99.90;;;;;;5013260;28;20037;-89
2023/04/25 06:53:24;;;;;;;15.05;1.70;;;7.30;99.90;;;;;;5019598;28;20399;-90
2023/04/25 06:55:50;;;;;;;10.35;1.77;;;7.30;99.90;;;;;;4999503;28;20041;-90
2023/04/25 06:58:15;;;;;;;11.68;1.40;;;7.40;99.90;;;;;;5019762;28;20160;-90
2023/04/25 07:00:41;;;;;;;11.00;1.92;;;7.40;99.90;;;;;;5021351;28;20029;-89
2023/04/25 07:03:07;;;;;;;14.13;2.75;;;7.50;99.90;;;;;;5001927;28;20045;-91
2023/04/25 07:05:32;;;;;;;8.00;1.30;;;7.50;99.90;;;;;;5007308;28;20581;-90
2023/04/25 07:07:58;;;;;;;10.70;1.60;;;7.60;99.90;;;;;;5003178;28;20037;-91
2023/04/25 07:10:24;;;;;;;7.20;1.38;;;7.60;99.90;;;;;;5020307;28;20578;-89
2023/04/25 07:12:50;;;;;;;9.65;1.75;;;7.60;99.90;;;;;;5010081;28;20040;-89
2023/04/25 07:15:16;;;;;;;12.30;1.20;;;7.50;99.90;;;;;;5006557;28;20046;-90
2023/04/25 07:17:42;;;;;;;10.40;1.20;;;7.50;99.90;;;;;;5022292;28;20038;-89
2023/04/25 07:20:09;;;;;;;5.25;0.98;;;7.40;99.90;;;;;;5007725;28;20057;-89
2023/04/25 07:22:34;;;;;;;10.30;1.45;;;7.40;99.90;;;;;;5024826;28;20033;-89
2023/04/25 07:25:00;;;;;;;9.02;1.30;;;7.70;99.90;;;;;;5022924;28;20581;-89
2023/04/25 07:27:26;;;;;;;7.20;1.42;;;7.30;99.90;;;;;;5017438;28;20338;-90
2023/04/25 07:29:51;;;;;;;8.65;1.95;;;7.30;99.90;;;;;;5023168;28;20115;-90
2023/04/25 07:32:17;;;;;;;8.60;1.30;;;7.40;99.90;;;;;;5028919;28;20111;-90
2023/04/25 07:34:43;;;;;;;9.82;1.25;;;7.90;99.90;;;;;;5020143;28;20594;-90
2023/04/25 07:37:08;;;;;;;7.45;1.10;;;7.60;99.90;;;;;;5022781;28;20072;-90
2023/04/25 07:39:34;;;;;;;10.65;1.20;;;7.70;99.90;;;;;;5017443;28;20038;-90
2023/04/25 07:42:01;;;;;;;6.75;1.10;;;7.70;99.90;;;;;;5021253;28;20042;-87
2023/04/25 07:44:27;;;;;;;6.72;0.68;;;7.80;99.90;;;;;;4998501;28;20609;-89
2023/04/25 07:46:53;;;;;;;6.57;0.95;;;7.80;99.90;;;;;;5003889;28;20128;-89
2023/04/25 07:49:18;;;;;;;7.28;0.90;;;7.80;99.90;;;;;;5006138;28;20042;-89
2023/04/25 07:51:44;;;;;;;6.30;1.00;;;7.80;99.90;;;;;;5023454;28;20041;-90
2023/04/25 07:54:14;;;;;;;8.60;1.23;;;7.80;99.90;;;;;;4999854;28;20602;-90
2023/04/25 07:56:40;;;;;;;7.55;1.20;;;7.90;99.90;;;;;;5022976;28;20562;-89
2023/04/25 07:59:05;;;;;;;10.30;1.30;;;7.90;99.90;;;;;;5022862;28;20078;-90
2023/04/25 08:01:31;;;;;;;7.00;0.85;;;7.90;99.90;;;;;;5025183;28;20392;-89
2023/04/25 08:03:57;;;;;;;5.75;1.27;;;8.10;99.90;;;;;;5024100;28;20045;-91
2023/04/25 08:06:23;;;;;;;6.25;0.77;;;8.60;99.90;;;;;;5023424;28;20128;-90
2023/04/25 08:08:49;;;;;;;8.43;0.88;;;8.10;99.90;;;;;;5019165;28;20088;-90
2023/04/25 08:11:15;;;;;;;8.80;1.10;;;8.80;99.90;;;;;;5018932;28;20038;-88
2023/04/25 08:13:41;;;;;;;5.82;0.93;;;8.10;99.90;;;;;;5023336;28;20118;-89
2023/04/25 08:16:06;;;;;;;10.20;1.25;;;8.30;99.90;;;;;;5006463;28;20041;-89
2023/04/25 08:18:32;;;;;;;7.88;1.27;;;8.10;99.90;;;;;;5006753;28;20431;-90
2023/04/25 08:20:57;;;;;;;8.00;1.02;;;8.00;99.90;;;;;;5017649;28;20037;-90
2023/04/25 08:23:23;;;;;;;8.32;0.95;;;8.10;99.90;;;;;;5005060;28;20067;-89
2023/04/25 08:25:49;;;;;;;5.35;0.90;;;8.10;99.90;;;;;;5005575;28;20451;-89
2023/04/25 08:28:14;;;;;;;5.97;1.30;;;8.20;99.90;;;;;;4997863;28;20480;-91
2023/04/25 08:30:40;;;;;;;7.50;1.42;;;8.30;99.90;;;;;;4988867;28;20056;-91
2023/04/25 08:33:06;;;;;;;9.90;1.10;;;8.40;99.90;;;;;;5019773;28;20052;-90
2023/04/25 08:35:33;;;;;;;6.38;1.10;;;8.80;99.90;;;;;;5014714;28;20505;-91
2023/04/25 08:37:58;;;;;;;5.88;0.70;;;8.40;99.90;;;;;;5024127;28;20056;-90
2023/04/25 08:40:29;;;;;;;7.22;0.55;;;9.20;99.90;;;;;;5016951;28;20095;-89
2023/04/25 08:42:57;;;;;;;5.28;1.35;;;8.30;99.90;;;;;;5022790;28;20083;-90
2023/04/25 08:45:24;;;;;;;5.38;0.70;;;8.20;99.90;;;;;;5013776;28;20125;-89
2023/04/25 08:47:52;;;;;;;3.60;0.60;;;8.10;99.90;;;;;;5021928;28;20427;-89
2023/04/25 08:50:21;;;;;;;2.60;0.50;;;8.00;99.90;;;;;;5018314;28;20041;-89
2023/04/25 08:52:49;;;;;;;4.07;0.70;;;8.00;99.90;;;;;;5005813;28;20045;-90
2023/04/25 08:55:16;;;;;;;3.22;0.65;;;8.10;99.90;;;;;;5022981;28;20417;-91
2023/04/25 08:57:45;;;;;;;2.55;0.57;;;8.20;99.90;;;;;;5024599;28;20045;-90
2023/04/25 09:00:12;;;;;;;4.53;0.80;;;8.30;99.90;;;;;;5019426;28;20387;-90
2023/04/25 09:02:39;;;;;;;3.75;0.63;;;8.40;99.90;;;;;;5021619;28;20044;-89
2023/04/25 09:05:06;;;;;;;1.75;0.40;;;9.40;99.90;;;;;;5023036;28;20167;-89
2023/04/25 09:07:32;;;;;;;5.80;0.63;;;8.60;99.90;;;;;;5022351;28;20052;-90
2023/04/25 09:10:03;;;;;;;3.97;0.55;;;8.60;99.90;;;;;;5006669;28;20072;-90
2023/04/25 09:12:29;;;;;;;2.95;0.60;;;8.60;99.90;;;;;;5023244;28;20068;-90
2023/04/25 09:15:07;;;;;;;2.55;0.57;;;9.20;99.90;;;;;;5016499;28;20491;-90
2023/04/25 09:17:33;;;;;;;4.28;0.60;;;8.50;99.90;;;;;;5022193;28;20037;-90
2023/04/25 09:20:07;;;;;;;3.65;0.50;;;8.90;99.90;;;;;;5000395;28;20522;-91
2023/04/25 09:22:33;;;;;;;4.95;0.60;;;8.60;99.90;;;;;;5024506;28;20339;-91
2023/04/25 09:25:03;;;;;;;4.47;0.52;;;8.70;99.90;;;;;;5025094;28;20313;-90
2023/04/25 09:27:28;;;;;;;2.65;0.50;;;8.70;99.90;;;;;;5019201;28;20051;-92
2023/04/25 09:30:01;;;;;;;7.60;0.70;;;8.80;99.90;;;;;;5038048;28;20041;-91
2023/04/25 09:32:27;;;;;;;5.05;0.70;;;8.90;99.90;;;;;;5022928;28;20045;-92
2023/04/25 09:34:55;;;;;;;9.02;1.00;;;9.10;99.90;;;;;;5026255;28;20059;-91
2023/04/25 09:37:23;;;;;;;8.55;1.15;;;9.20;99.90;;;;;;5040616;28;20033;-91
2023/04/25 09:40:00;;;;;;;4.35;0.90;;;9.40;99.90;;;;;;5024552;28;20498;-91
2023/04/25 09:42:28;;;;;;;10.98;1.40;;;9.80;99.90;;;;;;5025373;28;20095;-92
2023/04/25 09:44:55;;;;;;;5.55;0.93;;;9.60;99.90;;;;;;5042753;28;20067;-90
2023/04/25 09:47:23;;;;;;;7.32;1.20;;;9.60;99.90;;;;;;5025615;28;20055;-92
2023/04/25 09:49:50;;;;;;;5.45;1.33;;;9.80;99.90;;;;;;5043213;28;20040;-91
2023/04/25 09:52:23;;;;;;;5.82;0.80;;;9.80;99.90;;;;;;5040776;28;20052;-90
2023/04/25 09:54:50;;;;;;;6.15;1.00;;;9.80;99.90;;;;;;5014533;28;20127;-90
2023/04/25 09:57:18;;;;;;;7.45;1.55;;;10.00;99.90;;;;;;5026148;28;20311;-91
2023/04/25 09:59:49;;;;;;;3.95;0.80;;;9.40;99.90;;;;;;5009247;28;20045;-90
2023/04/25 10:02:17;;;;;;;6.38;0.95;;;9.30;99.90;;;;;;5024497;28;20161;-90
2023/04/25 10:04:47;;;;;;;7.30;0.90;;;9.20;99.90;;;;;;5025163;28;20044;-91
2023/04/25 10:07:14;;;;;;;7.85;1.13;;;9.40;99.90;;;;;;5014658;28;20036;-92
2023/04/25 10:09:40;;;;;;;10.50;1.50;;;9.00;99.90;;;;;;5019918;28;20068;-90
2023/04/25 10:12:07;;;;;;;9.88;1.13;;;8.90;99.90;;;;;;5020954;28;20403;-91
2023/04/25 10:14:34;;;;;;;8.85;1.23;;;8.90;99.90;;;;;;5042780;28;20140;-90
2023/04/25 10:17:00;;;;;;;9.68;1.25;;;9.00;99.90;;;;;;5024618;28;20102;-89
2023/04/25 10:19:27;;;;;;;7.97;0.90;;;9.80;99.90;;;;;;5017019;28;20103;-90
2023/04/25 10:22:11;;;;;;;5.63;0.82;;;9.20;99.90;;;;;;5017928;28;20127;-89
2023/04/25 10:24:38;;;;;;;5.68;1.00;;;9.40;99.90;;;;;;5039956;28;20082;-87
2023/04/25 10:27:05;;;;;;;6.68;0.88;;;9.60;99.90;;;;;;5016558;28;20045;-91
2023/04/25 10:29:31;;;;;;;6.53;1.20;;;9.70;99.90;;;;;;5039302;28;20047;-85
2023/04/25 10:31:58;;;;;;;6.43;1.20;;;9.80;99.90;;;;;;5020359;28;20678;-88
2023/04/25 10:34:37;;;;;;;8.25;1.02;;;10.00;99.90;;;;;;5019683;28;20064;-90
2023/04/25 10:37:03;;;;;;;7.55;1.60;;;10.20;99.90;;;;;;5003014;28;20045;-84
2023/04/25 10:39:29;;;;;;;6.80;1.60;;;10.40;99.90;;;;;;5035072;28;20172;-85
2023/04/25 10:41:58;;;;;;;8.95;1.58;;;10.30;99.90;;;;;;5033216;28;20093;-84
2023/04/25 10:44:31;;;;;;;6.82;1.20;;;10.20;99.90;;;;;;5034983;28;20490;-84
2023/04/25 10:46:58;;;;;;;7.40;1.05;;;10.20;99.90;;;;;;5039147;28;20056;-85
2023/04/25 10:49:40;;;;;;;9.23;1.33;;;10.10;99.90;;;;;;5034014;28;20079;-85
2023/04/25 10:52:26;;;;;;;6.53;1.17;;;10.00;99.90;;;;;;5010039;28;20053;-85
2023/04/25 10:54:54;;;;;;;5.28;1.10;;;10.10;99.90;;;;;;5038567;28;20057;-85
2023/04/25 10:57:41;;;;;;;5.68;1.10;;;10.20;99.90;;;;;;5030465;28;20052;-85
2023/04/25 11:00:12;;;;;;;5.43;0.93;;;10.40;99.90;;;;;;5032683;28;20499;-85
2023/04/25 11:02:53;;;;;;;5.63;1.63;;;10.60;99.90;;;;;;5019843;28;20045;-85
2023/04/25 11:05:36;;;;;;;7.63;1.25;;;10.80;99.90;;;;;;5020331;28;20393;-84
2023/04/25 11:08:06;;;;;;;8.48;1.33;;;10.90;99.90;;;;;;5020034;28;20053;-85
2023/04/25 11:10:36;;;;;;;7.32;1.10;;;10.80;99.90;;;;;;5019608;28;20464;-86
2023/04/25 11:13:01;;;;;;;6.93;0.90;;;10.80;99.90;;;;;;5012360;28;20037;-84
2023/04/25 11:15:27;;;;;;;11.68;3.05;;;10.90;99.90;;;;;;5020333;28;20122;-85
2023/04/25 11:17:54;;;;;;;4.45;0.90;;;10.80;99.90;;;;;;5010868;28;20045;-85
2023/04/25 11:20:20;;;;;;;6.38;1.15;;;10.80;99.90;;;;;;5031125;28;20328;-85
2023/04/25 11:22:46;;;;;;;9.52;1.25;;;10.70;99.90;;;;;;5020800;28;20628;-84
2023/04/25 11:25:15;;;;;;;9.77;1.13;;;10.80;99.90;;;;;;5030663;28;20496;-85
2023/04/25 11:27:53;;;;;;;5.88;1.55;;;10.90;99.90;;;;;;5001328;28;20617;-85
2023/04/25 11:30:20;;;;;;;7.82;1.13;;;10.80;99.90;;;;;;5042266;28;20041;-85
2023/04/25 11:32:46;;;;;;;6.80;1.17;;;10.70;99.90;;;;;;5022997;28;20144;-86
2023/04/25 11:35:13;;;;;;;5.75;1.30;;;10.60;99.90;;;;;;5015224;28;20032;-85
2023/04/25 11:37:43;;;;;;;7.65;1.20;;;10.50;99.90;;;;;;5014148;28;20459;-85
2023/04/25 11:40:09;;;;;;;5.45;1.00;;;10.40;99.90;;;;;;5030934;28;20047;-85
2023/04/25 11:42:43;;;;;;;7.32;1.00;;;10.40;99.90;;;;;;5012909;28;20049;-85
2023/04/25 11:45:10;;;;;;;;;;;10.60;99.90;;;;;;5032364;28;20162;-85
2023/04/25 11:47:36;;;;;;;5.05;1.08;;;10.80;99.90;;;;;;5030131;28;19932;-85
2023/04/25 11:50:07;;;;;;;5.50;0.93;;;10.90;99.90;;;;;;5012374;28;20149;-86
2023/04/25 11:52:47;;;;;;;5.18;0.80;;;10.90;99.90;;;;;;5033595;28;20036;-86
2023/04/25 11:55:18;;;;;;;7.00;1.10;;;10.80;99.90;;;;;;5034685;28;20037;-84
2023/04/25 11:57:47;;;;;;;7.95;1.25;;;10.90;99.90;;;;;;5024828;28;20486;-84
2023/04/25 12:00:18;;;;;;;7.32;1.50;;;10.90;99.90;;;;;;5026546;28;20041;-85
2023/04/25 12:02:46;;;;;;;7.18;1.33;;;10.80;99.90;;;;;;5021358;28;20055;-85
2023/04/25 12:05:15;;;;;;;5.03;1.10;;;10.80;99.90;;;;;;5028795;28;20104;-84
2023/04/25 12:07:41;;;;;;;8.80;0.70;;;10.90;99.90;;;;;;5023818;28;20029;-85
2023/04/25 12:10:15;;;;;;;11.35;1.20;;;11.00;99.90;;;;;;5024019;28;20030;-84
2023/04/25 12:12:46;;;;;;;5.90;1.00;;;11.20;99.90;;;;;;5028080;28;20036;-84
2023/04/25 12:15:19;;;;;;;5.93;1.02;;;11.30;99.90;;;;;;5044766;28;20040;-85
2023/04/25 12:17:51;;;;;;;7.72;1.27;;;11.40;99.90;;;;;;5030803;28;20079;-86
2023/04/25 12:20:23;;;;;;;5.88;0.85;;;11.60;99.90;;;;;;5025382;28;20091;-84
2023/04/25 12:22:50;;;;;;;5.60;0.80;;;11.70;99.90;;;;;;5011869;28;20167;-85
2023/04/25 12:25:35;;;;;;;2.88;1.00;;;11.80;99.90;;;;;;5049520;28;20064;-85
2023/04/25 12:28:20;;;;;;;;;;;11.80;99.90;;;;;;5031535;28;20088;-85
2023/04/25 12:31:03;;;;;;;;;;;11.80;99.90;;;;;;5024268;28;19917;-86
2023/04/25 12:33:33;;;;;;;6.53;0.93;;;11.70;99.90;;;;;;5049935;28;19916;-85
2023/04/25 12:36:03;;;;;;;8.15;1.10;;;11.40;99.90;;;;;;5046571;28;20483;-86
2023/04/25 12:38:31;;;;;;;10.30;0.95;;;11.30;99.90;;;;;;5040407;28;20044;-85
2023/04/25 12:41:11;;;;;;;;;;;;;;;;;;;;;
2023/04/25 12:43:42;;;;;;;9.32;1.20;;;11.20;99.90;;;;;;5041136;28;20055;-84
2023/04/25 12:46:08;;;;;;;5.75;1.10;;;11.10;99.90;;;;;;5002377;28;20124;-84
2023/04/25 12:48:34;;;;;;;9.00;1.00;;;11.10;99.90;;;;;;5031920;28;20045;-91
2023/04/25 12:51:03;;;;;;;7.72;1.08;;;11.10;99.90;;;;;;5026743;28;20800;-90
2023/04/25 12:53:29;;;;;;;7.40;1.00;;;11.10;99.90;;;;;;5048299;28;20029;-89